createdAt,value
2019-04-02T00:00:28.195Z,34.30
2019-04-02T00:02:56.933Z,33.30
2019-04-02T00:05:25.483Z,33.37
2019-04-02T00:07:54.015Z,34.27
2019-04-02T00:10:22.552Z,33.63
2019-04-02T00:12:51.052Z,33.45
2019-04-02T00:15:19.606Z,33.23
2019-04-02T00:17:48.149Z,34.20
2019-04-02T00:20:16.787Z,33.90
2019-04-02T00:22:45.510Z,33.03
2019-04-02T00:25:14.248Z,34.13
2019-04-02T00:27:42.803Z,32.73
2019-04-02T00:30:11.572Z,33.38
2019-04-02T00:32:40.189Z,33.15
2019-04-02T00:35:10.735Z,34.20
2019-04-02T00:37:39.206Z,33.70
2019-04-02T00:40:08.109Z,33.50
2019-04-02T00:42:36.603Z,34.10
2019-04-02T00:45:09.612Z,33.10
2019-04-02T00:47:38.071Z,34.60
2019-04-02T00:50:08.298Z,33.10
2019-04-02T00:52:36.787Z,33.70
2019-04-02T00:55:06.647Z,33.80
2019-04-02T00:57:35.151Z,34.33
2019-04-02T01:00:04.526Z,33.50
2019-04-02T01:02:33.329Z,33.48
2019-04-02T01:05:01.832Z,33.47
2019-04-02T01:07:31.312Z,34.43
2019-04-02T01:10:00.497Z,34.53
2019-04-02T01:12:29.059Z,35.25
2019-04-02T01:14:57.541Z,35.20
2019-04-02T01:17:26.007Z,33.80
2019-04-02T01:19:54.536Z,34.53
2019-04-02T01:22:23.155Z,33.13
2019-04-02T01:24:51.687Z,34.40
2019-04-02T01:27:20.187Z,35.17
2019-04-02T01:29:48.649Z,34.10
2019-04-02T01:32:17.182Z,34.18
2019-04-02T01:34:45.749Z,36.90
2019-04-02T01:37:14.283Z,37.55
2019-04-02T01:39:42.739Z,38.73
2019-04-02T01:42:11.231Z,38.92
2019-04-02T01:44:39.711Z,38.30
2019-04-02T01:47:08.183Z,39.18
2019-04-02T01:49:36.742Z,38.27
2019-04-02T01:52:05.280Z,37.38
2019-04-02T01:54:33.752Z,39.48
2019-04-02T01:57:03.324Z,38.33
2019-04-02T01:59:31.862Z,37.80
2019-04-02T02:02:00.725Z,38.15
2019-04-02T02:04:29.227Z,37.90
2019-04-02T02:06:57.693Z,38.42
2019-04-02T02:09:26.225Z,38.42
2019-04-02T02:11:54.715Z,39.13
2019-04-02T02:14:23.471Z,39.33
2019-04-02T02:16:51.927Z,39.60
2019-04-02T02:19:20.418Z,39.37
2019-04-02T02:21:48.998Z,39.92
2019-04-02T02:24:17.727Z,38.10
2019-04-02T02:26:46.271Z,39.57
2019-04-02T02:29:14.740Z,38.23
2019-04-02T02:31:43.381Z,37.83
2019-04-02T02:34:11.944Z,37.90
2019-04-02T02:36:40.829Z,38.77
2019-04-02T02:39:10.748Z,37.07
2019-04-02T02:42:01.447Z,38.67
2019-04-02T02:44:31.389Z,36.60
2019-04-02T02:46:59.990Z,36.77
2019-04-02T02:49:28.555Z,37.40
2019-04-02T02:51:57.089Z,36.33
2019-04-02T02:54:25.735Z,35.20
2019-04-02T02:56:54.884Z,34.30
2019-04-02T02:59:25.136Z,34.37
2019-04-02T03:01:53.776Z,36.30
2019-04-02T03:04:22.512Z,35.78
2019-04-02T03:06:51.190Z,36.35
2019-04-02T03:09:20.467Z,37.75
2019-04-02T03:11:49.103Z,37.40
2019-04-02T03:14:17.705Z,39.60
2019-04-02T03:16:46.430Z,37.67
2019-04-02T03:19:15.067Z,38.70
2019-04-02T03:21:46.162Z,38.10
2019-04-02T03:24:13.929Z,39.20
2019-04-02T03:26:43.298Z,40.40
2019-04-02T03:29:11.843Z,39.00
2019-04-02T03:31:41.303Z,40.30
2019-04-02T03:34:11.463Z,38.60
2019-04-02T03:36:40.114Z,40.27
2019-04-02T03:39:08.820Z,39.57
2019-04-02T03:41:40.213Z,40.17
2019-04-02T03:44:07.702Z,41.90
2019-04-02T03:46:36.254Z,39.97
2019-04-02T03:49:04.951Z,41.10
2019-04-02T03:51:33.510Z,42.03
2019-04-02T03:54:02.057Z,42.85
2019-04-02T03:56:30.637Z,41.23
2019-04-02T03:58:59.177Z,42.75
2019-04-02T04:01:27.732Z,42.00
2019-04-02T04:03:56.288Z,41.35
2019-04-02T04:06:24.746Z,42.53
2019-04-02T04:08:53.278Z,43.20
2019-04-02T04:11:21.778Z,42.10
2019-04-02T04:13:50.313Z,43.40
2019-04-02T04:16:18.988Z,43.40
2019-04-02T04:18:49.075Z,45.57
2019-04-02T04:21:17.952Z,43.92
2019-04-02T04:23:46.463Z,41.57
2019-04-02T04:26:15.102Z,43.78
2019-04-02T04:28:43.643Z,44.88
2019-04-02T04:31:12.104Z,44.35
2019-04-02T04:33:40.757Z,42.90
2019-04-02T04:36:10.869Z,44.87
2019-04-02T04:38:42.349Z,43.70
2019-04-02T04:41:10.011Z,69.53
2019-04-02T04:43:38.519Z,48.92
2019-04-02T04:46:06.986Z,52.95
2019-04-02T04:48:35.479Z,201.43
2019-04-02T04:51:04.179Z,81.93
2019-04-02T04:53:32.641Z,143.20
2019-04-02T04:56:01.133Z,58.58
2019-04-02T04:58:29.614Z,58.33
2019-04-02T05:00:58.135Z,50.05
2019-04-02T05:04:03.777Z,49.30
2019-04-02T05:06:32.576Z,45.70
2019-04-02T05:09:01.196Z,50.05
2019-04-02T05:11:29.763Z,52.10
2019-04-02T05:13:58.288Z,47.27
2019-04-02T05:16:26.843Z,50.30
2019-04-02T05:18:55.424Z,52.55
2019-04-02T05:21:24.248Z,47.78
2019-04-02T05:23:52.718Z,46.40
2019-04-02T05:26:21.285Z,54.73
2019-04-02T05:28:49.829Z,49.23
2019-04-02T05:31:18.389Z,47.45
2019-04-02T05:33:46.958Z,45.05
2019-04-02T05:36:15.423Z,47.08
2019-04-02T05:38:43.901Z,49.93
2019-04-02T05:41:13.372Z,48.15
2019-04-02T05:43:42.637Z,49.30
2019-04-02T05:46:11.160Z,47.40
2019-04-02T05:48:39.720Z,49.20
2019-04-02T05:51:08.175Z,51.20
2019-04-02T05:53:36.802Z,49.93
2019-04-02T05:56:05.658Z,49.90
2019-04-02T05:58:35.189Z,48.83
2019-04-02T06:01:04.080Z,48.27
2019-04-02T06:03:32.563Z,47.97
2019-04-02T06:06:01.029Z,48.73
2019-04-02T06:08:30.627Z,47.58
2019-04-02T06:10:59.291Z,49.33
2019-04-02T06:13:28.793Z,48.00
2019-04-02T06:15:57.681Z,47.80
2019-04-02T06:18:26.169Z,49.90
2019-04-02T06:20:54.784Z,49.58
2019-04-02T06:23:23.251Z,47.30
2019-04-02T06:25:51.799Z,49.00
2019-04-02T06:28:20.355Z,47.60
2019-04-02T06:30:48.967Z,47.45
2019-04-02T06:33:17.616Z,46.60
2019-04-02T06:35:48.861Z,47.45
2019-04-02T06:38:16.413Z,47.30
2019-04-02T06:40:44.903Z,48.17
2019-04-02T06:43:15.600Z,48.85
2019-04-02T06:45:43.556Z,49.77
2019-04-02T06:48:13.838Z,49.63
2019-04-02T06:50:46.652Z,48.02
2019-04-02T06:53:14.189Z,47.75
2019-04-02T06:55:44.929Z,49.80
2019-04-02T06:58:12.847Z,47.67
2019-04-02T07:00:41.859Z,47.95
2019-04-02T07:03:10.422Z,45.73
2019-04-02T07:05:39.032Z,47.40
2019-04-02T07:08:07.500Z,47.07
2019-04-02T07:10:43.577Z,46.90
2019-04-02T07:13:06.244Z,48.55
2019-04-02T07:15:35.140Z,47.17
2019-04-02T07:18:04.450Z,46.80
2019-04-02T07:20:34.821Z,46.03
2019-04-02T07:23:03.518Z,46.97
2019-04-02T07:25:32.331Z,47.55
2019-04-02T07:28:00.861Z,45.52
2019-04-02T07:30:29.324Z,46.85
2019-04-02T07:32:59.492Z,46.95
2019-04-02T07:35:30.013Z,44.80
2019-04-02T07:37:58.419Z,46.43
2019-04-02T07:40:26.908Z,46.73
2019-04-02T07:42:55.367Z,44.93
2019-04-02T07:45:24.161Z,43.75
2019-04-02T07:47:52.759Z,45.67
2019-04-02T07:50:21.818Z,44.33
2019-04-02T07:52:50.266Z,43.92
2019-04-02T07:55:19.282Z,45.80
2019-04-02T07:57:47.740Z,44.60
2019-04-02T08:00:16.545Z,43.95
2019-04-02T08:02:45.114Z,42.80
2019-04-02T08:05:13.909Z,42.57
2019-04-02T08:07:42.367Z,42.80
2019-04-02T08:10:10.927Z,43.20
2019-04-02T08:12:39.408Z,41.95
2019-04-02T08:15:08.275Z,40.60
2019-04-02T08:17:36.853Z,41.95
2019-04-02T08:20:10.241Z,42.40
2019-04-02T08:22:38.089Z,42.57
2019-04-02T08:25:07.709Z,41.60
2019-04-02T08:27:37.273Z,39.95
2019-04-02T08:30:09.551Z,39.25
2019-04-02T08:32:38.657Z,39.60
2019-04-02T08:35:07.260Z,39.50
2019-04-02T08:37:37.614Z,41.68
2019-04-02T08:40:07.951Z,39.40
2019-04-02T08:42:36.660Z,38.33
2019-04-02T08:45:08.689Z,40.08
2019-04-02T08:47:37.458Z,38.57
2019-04-02T08:50:07.707Z,39.40
2019-04-02T08:52:36.317Z,40.35
2019-04-02T08:55:06.902Z,37.80
2019-04-02T08:57:35.513Z,37.17
2019-04-02T09:00:10.058Z,36.93
2019-04-02T09:02:38.795Z,37.20
2019-04-02T09:05:07.341Z,36.05
2019-04-02T09:07:35.878Z,37.37
2019-04-02T09:10:05.912Z,36.40
2019-04-02T09:12:34.382Z,34.95
2019-04-02T09:15:02.855Z,37.00
2019-04-02T09:17:31.711Z,35.63
2019-04-02T09:20:00.183Z,35.78
2019-04-02T09:22:28.651Z,33.85
2019-04-02T09:24:57.143Z,33.27
2019-04-02T09:27:26.838Z,35.03
2019-04-02T09:29:55.439Z,33.42
2019-04-02T09:32:35.478Z,34.60
2019-04-02T09:34:55.243Z,34.50
2019-04-02T09:37:24.444Z,33.30
2019-04-02T09:39:53.086Z,29.50
2019-04-02T09:42:21.643Z,27.00
2019-04-02T09:44:50.171Z,26.75
2019-04-02T09:47:18.660Z,25.50
2019-04-02T09:49:47.124Z,25.48
2019-04-02T09:52:15.594Z,25.47
2019-04-02T09:54:44.158Z,24.02
2019-04-02T09:57:13.043Z,22.33
2019-04-02T09:59:41.518Z,20.93
2019-04-02T10:02:10.740Z,20.95
2019-04-02T10:04:40.296Z,20.75
2019-04-02T10:07:09.510Z,20.27
2019-04-02T10:09:38.075Z,20.27
2019-04-02T10:12:07.286Z,20.33
2019-04-02T10:14:35.842Z,19.65
2019-04-02T10:17:04.830Z,17.97
2019-04-02T10:19:33.315Z,17.60
2019-04-02T10:22:01.928Z,17.82
2019-04-02T10:24:30.763Z,16.80
2019-04-02T10:26:59.288Z,15.78
2019-04-02T10:29:27.856Z,16.23
2019-04-02T10:31:56.318Z,14.90
2019-04-02T10:34:24.837Z,14.40
2019-04-02T10:36:56.841Z,13.70
2019-04-02T10:39:23.818Z,13.72
2019-04-02T10:41:52.307Z,13.80
2019-04-02T10:44:20.838Z,13.50
2019-04-02T10:46:49.308Z,12.33
2019-04-02T10:49:17.870Z,13.50
2019-04-02T10:51:46.406Z,13.50
2019-04-02T10:54:14.874Z,13.90
2019-04-02T10:56:43.569Z,13.98
2019-04-02T10:59:12.956Z,14.37
2019-04-02T11:01:41.594Z,14.80
2019-04-02T11:04:10.155Z,16.40
2019-04-02T11:06:38.698Z,15.00
2019-04-02T11:09:10.345Z,13.93
2019-04-02T11:11:38.840Z,14.07
2019-04-02T11:14:12.104Z,14.20
2019-04-02T11:16:37.615Z,13.40
2019-04-02T11:19:06.324Z,12.00
2019-04-02T11:21:35.191Z,11.27
2019-04-02T11:24:03.838Z,11.17
2019-04-02T11:26:34.041Z,12.33
2019-04-02T11:29:03.422Z,11.90
2019-04-02T11:31:31.957Z,12.67
2019-04-02T11:34:00.521Z,11.47
2019-04-02T11:36:29.123Z,11.70
2019-04-02T11:38:57.604Z,11.85
2019-04-02T11:41:26.111Z,11.60
2019-04-02T11:43:54.655Z,11.40
2019-04-02T11:46:23.117Z,10.80
2019-04-02T11:48:51.693Z,11.10
2019-04-02T11:51:20.227Z,11.40
2019-04-02T11:53:48.799Z,12.07
2019-04-02T11:56:17.295Z,12.10
2019-04-02T11:58:45.768Z,12.10
2019-04-02T12:01:14.298Z,11.67
2019-04-02T12:03:42.860Z,12.50
2019-04-02T12:06:11.578Z,12.50
2019-04-02T12:08:40.043Z,11.90
2019-04-02T12:11:08.528Z,11.93
2019-04-02T12:13:37.008Z,11.00
2019-04-02T12:16:05.615Z,10.57
2019-04-02T12:18:34.115Z,11.10
2019-04-02T12:21:02.585Z,11.60
2019-04-02T12:23:31.302Z,11.20
2019-04-02T12:25:59.791Z,12.10
2019-04-02T12:28:28.279Z,12.00
2019-04-02T12:30:56.738Z,11.93
2019-04-02T12:33:25.296Z,11.83
2019-04-02T12:35:53.755Z,12.58
2019-04-02T12:38:22.239Z,11.65
2019-04-02T12:40:51.145Z,12.23
2019-04-02T12:43:19.688Z,12.17
2019-04-02T12:45:48.342Z,12.17
2019-04-02T12:48:19.643Z,11.90
2019-04-02T12:50:47.903Z,12.80
2019-04-02T12:53:16.370Z,12.90
2019-04-02T12:55:46.633Z,12.00
2019-04-02T12:58:15.043Z,11.83
2019-04-02T13:00:43.948Z,11.90
2019-04-02T13:03:12.524Z,12.20
2019-04-02T13:05:40.997Z,11.10
2019-04-02T13:08:09.536Z,12.30
2019-04-02T13:10:38.095Z,11.50
2019-04-02T13:13:06.632Z,11.33
2019-04-02T13:15:35.601Z,11.12
2019-04-02T13:18:04.431Z,11.78
2019-04-02T13:20:33.403Z,12.70
2019-04-02T13:23:02.140Z,11.70
2019-04-02T13:25:30.639Z,11.80
2019-04-02T13:27:59.112Z,11.93
2019-04-02T13:30:27.639Z,11.65
2019-04-02T13:32:59.582Z,10.80
2019-04-02T13:35:26.325Z,11.20
2019-04-02T13:37:54.871Z,11.10
2019-04-02T13:40:23.538Z,9.70
2019-04-02T13:42:52.184Z,9.90
2019-04-02T13:45:21.246Z,9.80
2019-04-02T13:47:50.672Z,10.20
2019-04-02T13:50:19.809Z,8.90
2019-04-02T13:52:48.413Z,8.65
2019-04-02T13:55:16.980Z,8.70
2019-04-02T13:57:45.431Z,9.17
2019-04-02T14:00:17.203Z,9.50
2019-04-02T14:02:45.773Z,9.37
2019-04-02T14:05:14.446Z,8.70
2019-04-02T14:07:42.907Z,9.55
2019-04-02T14:10:11.661Z,9.18
2019-04-02T14:12:40.197Z,8.10
2019-04-02T14:15:12.779Z,7.33
2019-04-02T14:17:41.510Z,6.55
2019-04-02T14:20:10.207Z,7.15
2019-04-02T14:22:38.661Z,7.83
2019-04-02T14:25:07.315Z,7.70
2019-04-02T14:27:35.850Z,7.80
2019-04-02T14:30:07.308Z,8.78
2019-04-02T14:32:35.959Z,9.50
2019-04-02T14:35:06.662Z,9.73
2019-04-02T14:37:35.121Z,9.30
2019-04-02T14:40:05.989Z,8.40
2019-04-02T14:42:34.477Z,9.00
2019-04-02T14:45:03.024Z,8.40
2019-04-02T14:47:31.601Z,7.10
2019-04-02T14:50:00.142Z,7.03
2019-04-02T14:52:28.671Z,6.78
2019-04-02T14:54:57.343Z,6.73
2019-04-02T14:57:26.147Z,8.30
2019-04-02T14:59:54.690Z,7.40
2019-04-02T15:02:23.243Z,8.78
2019-04-02T15:04:54.633Z,8.60
2019-04-02T15:07:23.744Z,8.93
2019-04-02T15:09:52.448Z,9.87
2019-04-02T15:12:20.982Z,9.75
2019-04-02T15:14:49.866Z,10.10
2019-04-02T15:17:19.776Z,10.60
2019-04-02T15:19:48.248Z,10.25
2019-04-02T15:22:17.033Z,9.30
2019-04-02T15:24:45.511Z,8.78
2019-04-02T15:27:13.979Z,8.70
2019-04-02T15:29:42.515Z,8.70
2019-04-02T15:32:11.001Z,8.60
2019-04-02T15:34:39.463Z,8.70
2019-04-02T15:37:08.238Z,8.90
2019-04-02T15:39:36.723Z,9.63
2019-04-02T15:42:05.206Z,10.20
2019-04-02T15:44:33.830Z,9.60
2019-04-02T15:47:02.397Z,10.20
2019-04-02T15:49:31.254Z,10.43
2019-04-02T15:51:59.719Z,10.00
2019-04-02T15:54:28.294Z,10.23
2019-04-02T15:56:56.753Z,10.28
2019-04-02T15:59:25.487Z,10.72
2019-04-02T16:01:53.979Z,10.20
2019-04-02T16:04:22.498Z,10.20
2019-04-02T16:06:51.077Z,9.85
2019-04-02T16:09:19.702Z,10.87
2019-04-02T16:11:48.171Z,10.60
2019-04-02T16:14:16.635Z,14.03
2019-04-02T16:16:45.124Z,10.57
2019-04-02T16:19:13.781Z,10.90
2019-04-02T16:21:42.748Z,10.63
2019-04-02T16:24:11.551Z,10.93
2019-04-02T16:26:40.087Z,11.30
2019-04-02T16:29:09.335Z,11.35
2019-04-02T16:31:37.829Z,10.80
2019-04-02T16:34:06.358Z,10.18
2019-04-02T16:36:34.819Z,10.20
2019-04-02T16:39:07.318Z,10.80
2019-04-02T16:41:35.147Z,10.45
2019-04-02T16:44:03.754Z,9.40
2019-04-02T16:46:32.235Z,10.30
2019-04-02T16:49:00.697Z,10.17
2019-04-02T16:51:29.262Z,9.90
2019-04-02T16:53:57.992Z,9.87
2019-04-02T16:56:26.631Z,9.50
2019-04-02T16:58:55.687Z,9.27
2019-04-02T17:01:24.243Z,9.60
2019-04-02T17:03:52.712Z,9.20
2019-04-02T17:06:21.247Z,9.57
2019-04-02T17:08:49.853Z,9.20
2019-04-02T17:11:18.423Z,9.00
2019-04-02T17:13:46.889Z,8.30
2019-04-02T17:16:15.449Z,7.90
2019-04-02T17:18:43.910Z,7.00
2019-04-02T17:21:12.367Z,6.97
2019-04-02T17:23:41.208Z,6.80
2019-04-02T17:26:09.842Z,6.00
2019-04-02T17:28:38.393Z,6.33
2019-04-02T17:31:06.979Z,5.90
2019-04-02T17:33:37.592Z,5.80
2019-04-02T17:36:05.821Z,5.50
2019-04-02T17:38:34.426Z,5.60
2019-04-02T17:41:02.967Z,6.03
2019-04-02T17:43:31.488Z,6.93
2019-04-02T17:46:00.331Z,6.72
2019-04-02T17:48:30.323Z,7.93
2019-04-02T17:50:59.031Z,7.95
2019-04-02T17:53:28.296Z,7.78
2019-04-02T17:55:56.751Z,7.90
2019-04-02T17:58:25.204Z,8.50
2019-04-02T18:00:53.779Z,8.73
2019-04-02T18:03:22.326Z,8.48
2019-04-02T18:05:51.456Z,8.63
2019-04-02T18:08:20.896Z,8.10
2019-04-02T18:10:49.768Z,7.67
2019-04-02T18:13:18.243Z,6.80
2019-04-02T18:15:48.357Z,7.55
2019-04-02T18:18:17.179Z,7.35
2019-04-02T18:20:45.637Z,7.60
2019-04-02T18:23:14.294Z,8.20
2019-04-02T18:25:43.299Z,9.23
2019-04-02T18:28:13.902Z,9.37
2019-04-02T18:30:42.914Z,9.10
2019-04-02T18:33:12.472Z,8.77
2019-04-02T18:35:40.951Z,8.80
2019-04-02T18:38:09.440Z,9.30
2019-04-02T18:40:38.629Z,7.77
2019-04-02T18:43:07.416Z,7.40
2019-04-02T18:45:36.170Z,7.20
2019-04-02T18:48:04.676Z,7.60
2019-04-02T18:50:33.207Z,7.25
2019-04-02T18:53:03.200Z,7.10
2019-04-02T18:55:32.020Z,7.42
2019-04-02T18:58:01.223Z,6.42
2019-04-02T19:00:32.919Z,7.77
2019-04-02T19:03:00.593Z,8.83
2019-04-02T19:05:29.962Z,8.53
2019-04-02T19:08:00.059Z,7.20
2019-04-02T19:10:29.161Z,7.13
2019-04-02T19:12:57.678Z,6.77
2019-04-02T19:15:26.168Z,6.37
2019-04-02T19:17:54.872Z,7.83
2019-04-02T19:20:23.432Z,7.50
2019-04-02T19:22:52.383Z,6.58
2019-04-02T19:25:33.770Z,7.40
2019-04-02T19:27:51.347Z,7.33
2019-04-02T19:30:20.008Z,6.37
2019-04-02T19:32:48.614Z,6.63
2019-04-02T19:35:17.214Z,6.95
2019-04-02T19:37:45.845Z,7.17
2019-04-02T19:40:14.518Z,6.60
2019-04-02T19:42:42.974Z,6.83
2019-04-02T19:45:11.803Z,6.55
2019-04-02T19:47:40.275Z,7.20
2019-04-02T19:50:08.908Z,6.37
2019-04-02T19:52:37.471Z,6.20
2019-04-02T19:55:07.313Z,6.03
2019-04-02T19:57:36.036Z,5.80
2019-04-02T20:00:07.053Z,5.30
2019-04-02T20:02:35.889Z,5.70
2019-04-02T20:05:05.691Z,6.00
2019-04-02T20:07:35.925Z,5.40
2019-04-02T20:10:07.347Z,5.70
2019-04-02T20:12:36.558Z,5.42
2019-04-02T20:15:07.448Z,5.45
2019-04-02T20:17:36.428Z,5.43
2019-04-02T20:20:08.214Z,5.37
2019-04-02T20:22:36.784Z,5.63
2019-04-02T20:25:08.789Z,5.83
2019-04-02T20:27:37.316Z,5.12
2019-04-02T20:30:06.862Z,5.80
2019-04-02T20:32:35.736Z,5.07
2019-04-02T20:35:06.937Z,5.20
2019-04-02T20:37:35.734Z,5.63
2019-04-02T20:40:06.607Z,5.60
2019-04-02T20:42:35.159Z,5.20
2019-04-02T20:45:04.795Z,5.40
2019-04-02T20:47:33.736Z,5.20
2019-04-02T20:50:02.688Z,5.28
2019-04-02T20:52:31.168Z,5.10
2019-04-02T20:54:59.714Z,5.20
2019-04-02T20:57:28.266Z,5.55
2019-04-02T20:59:56.840Z,5.33
2019-04-02T21:02:27.300Z,5.28
2019-04-02T21:04:57.105Z,5.60
2019-04-02T21:07:25.977Z,5.80
2019-04-02T21:09:54.587Z,6.13
2019-04-02T21:12:23.201Z,5.42
2019-04-02T21:14:51.835Z,5.50
2019-04-02T21:17:20.375Z,5.90
2019-04-02T21:19:48.835Z,5.37
2019-04-02T21:22:18.837Z,6.08
2019-04-02T21:24:48.369Z,5.40
2019-04-02T21:27:17.531Z,5.63
2019-04-02T21:29:46.073Z,5.70
2019-04-02T21:32:14.605Z,5.60
2019-04-02T21:34:43.217Z,5.30
2019-04-02T21:37:11.711Z,5.43
2019-04-02T21:39:40.246Z,5.45
2019-04-02T21:42:08.771Z,5.60
2019-04-02T21:44:37.338Z,5.50
2019-04-02T21:47:07.345Z,5.25
2019-04-02T21:49:37.659Z,4.90
2019-04-02T21:52:07.504Z,4.70
2019-04-02T21:54:36.313Z,4.80
2019-04-02T21:57:04.998Z,4.80
2019-04-02T21:59:33.819Z,4.70
2019-04-02T22:02:02.357Z,4.80
2019-04-02T22:04:30.832Z,4.67
2019-04-02T22:06:59.326Z,4.62
2019-04-02T22:09:27.897Z,4.70
2019-04-02T22:11:56.416Z,4.60
2019-04-02T22:14:24.931Z,4.50
2019-04-02T22:16:53.529Z,4.47
2019-04-02T22:19:22.065Z,4.80
2019-04-02T22:21:50.770Z,4.70
2019-04-02T22:24:19.263Z,4.28
2019-04-02T22:26:48.281Z,4.30
2019-04-02T22:29:16.918Z,4.60
2019-04-02T22:31:47.230Z,4.62
2019-04-02T22:34:15.572Z,4.40
2019-04-02T22:36:44.205Z,4.30
2019-04-02T22:39:12.772Z,4.43
2019-04-02T22:41:41.240Z,4.50
2019-04-02T22:44:09.720Z,4.30
2019-04-02T22:46:38.214Z,4.13
2019-04-02T22:49:06.760Z,4.50
2019-04-02T22:51:35.380Z,4.20
2019-04-02T22:54:04.026Z,4.10
2019-04-02T22:56:32.871Z,4.10
2019-04-02T22:59:02.996Z,4.17
2019-04-02T23:01:32.681Z,4.27
2019-04-02T23:04:02.605Z,3.80
2019-04-02T23:06:32.561Z,4.10
2019-04-02T23:09:03.271Z,4.30
2019-04-02T23:11:33.676Z,4.10
2019-04-02T23:14:03.767Z,4.03
2019-04-02T23:16:33.400Z,4.00
2019-04-02T23:19:07.869Z,3.83
2019-04-02T23:21:32.130Z,3.90
2019-04-02T23:24:00.589Z,4.17
2019-04-02T23:26:29.139Z,4.17
2019-04-02T23:28:57.850Z,4.30
2019-04-02T23:31:26.521Z,4.10
2019-04-02T23:33:56.262Z,3.92
2019-04-02T23:36:27.425Z,4.00
2019-04-02T23:38:55.176Z,3.80
2019-04-02T23:41:23.792Z,3.35
2019-04-02T23:43:52.520Z,3.55
2019-04-02T23:46:21.050Z,3.67
2019-04-02T23:48:49.514Z,3.70
2019-04-02T23:51:18.269Z,3.70
2019-04-02T23:53:46.808Z,3.50
2019-04-02T23:56:15.409Z,3.70
2019-04-02T23:58:43.982Z,4.00
